Aeroporto :
LOGIN :

Iscrizione | Disclaimer

   EN    FR    IT 

 










Sommario :    VFR   VFR Marginale   IFR   IFR Intensivo   IFR Molto Intensivo
Visibilità : 
Base nubi : 
>= 8 km
>= 3000ft
5 / 8 km
1000 / 3000 ft
1500m / 5 km
500 / 1000 ft
800 / 1500m
200 / 500 ft
< 800m
< 200 ft
Simboli :   Temporali  Nebbia  Neve Forte  Precipitazioni Forti  Vento > 20 kt
SIGMETs :   Varie  Temporali  Ghiacco  Turbolenza  Onda orograficha  Ceneri Vulcaniche







- Altitudine del aeroporto : 778 ft
- Codice IATA : BRQ


LKTB - Brno-Turany

ULTIMO METAR :
  • 190500Z 25004KT CAVOK M02/M03 Q1023 NOSIG

METARs OBSOLETI :
  • 190430Z 31005KT CAVOK M01/M03 Q1023 NOSIG
  • 190400Z VRB01KT CAVOK M01/M03 Q1023 NOSIG
  • 190330Z 30006KT CAVOK M01/M03 Q1022 NOSIG
  • 190300Z 26003KT 200V330 CAVOK M01/M03 Q1022 NOSIG
  • 190230Z VRB02KT CAVOK M00/M03 Q1022 NOSIG

TAF TAF LKTB
Valido dal 19 a 00 ore il 20 a 06 ore UTC


182300Z 1900/2006 30004KT CAVOK
TEMPO 1910/1917 34012G22KT 9999 SCT040
Nessun NOTAM noto per questo aeroporto.



MetMap, La meteo Aeronautica in un colpo d'occhio ! - Copyright ORBIFLY Dicembre 2007 - Disclaimer

ORBIFLY MET'MAP TEAM :

Programmazione e sviluppo : Alexandra Zaïnal
Concezione e sviluppo : Baudouin d'Aumeries
Co-Programmazione e sviluppo : Marc-Olivier Méhu
Supporto tecnico e logistico : Manuel Goepfert
Aiuto per la traduzione : Arnaldo La Scala

Contatto : metmap@orbifly.com




FONTI E CREDITI :

   NOAA